createdAt,value
2022-08-24T00:00:42.258Z,20.12
2022-08-24T00:03:44.899Z,20.15
2022-08-24T00:06:46.892Z,20.18
2022-08-24T00:09:50.765Z,20.28
2022-08-24T00:12:54.706Z,20.34
2022-08-24T00:15:57.842Z,20.38
2022-08-24T00:19:01.549Z,20.39
2022-08-24T00:22:03.540Z,20.41
2022-08-24T00:25:08.185Z,20.42
2022-08-24T00:28:09.979Z,20.44
2022-08-24T00:31:12.026Z,20.43
2022-08-24T00:34:14.052Z,20.39
2022-08-24T00:37:16.265Z,20.35
2022-08-24T00:40:22.004Z,20.30
2022-08-24T00:43:25.452Z,20.25
2022-08-24T00:46:34.564Z,20.24
2022-08-24T00:49:39.633Z,20.23
2022-08-24T00:52:43.979Z,20.24
2022-08-24T00:55:53.275Z,20.24
2022-08-24T00:58:57.772Z,20.26
2022-08-24T01:02:15.218Z,20.25
2022-08-24T01:05:18.117Z,20.27
2022-08-24T01:08:21.794Z,20.28
2022-08-24T01:11:26.628Z,20.27
2022-08-24T01:14:28.700Z,20.27
2022-08-24T01:17:49.832Z,20.26
2022-08-24T01:20:56.317Z,20.24
2022-08-24T01:24:00.896Z,20.19
2022-08-24T01:27:03.471Z,20.17
2022-08-24T01:30:11.859Z,20.10
2022-08-24T01:33:22.603Z,20.07
2022-08-24T01:36:31.267Z,20.03
2022-08-24T01:39:36.684Z,19.94
2022-08-24T01:42:38.697Z,19.88
2022-08-24T01:45:41.396Z,19.80
2022-08-24T01:48:43.279Z,19.75
2022-08-24T01:51:46.419Z,19.75
2022-08-24T01:54:50.093Z,19.74
2022-08-24T01:57:53.969Z,19.75
2022-08-24T02:00:56.095Z,19.72
2022-08-24T02:03:59.280Z,19.77
2022-08-24T02:07:02.874Z,19.82
2022-08-24T02:10:09.209Z,19.84
2022-08-24T02:13:13.163Z,19.88
2022-08-24T02:16:16.993Z,19.91
2022-08-24T02:19:19.346Z,19.91
2022-08-24T02:22:20.991Z,19.90
2022-08-24T02:25:24.824Z,19.86
2022-08-24T02:28:26.539Z,19.80
2022-08-24T02:31:28.356Z,19.71
2022-08-24T02:34:30.216Z,19.65
2022-08-24T02:37:31.868Z,19.58
2022-08-24T02:40:35.202Z,19.54
2022-08-24T02:43:38.577Z,19.54
2022-08-24T02:46:41.591Z,19.60
2022-08-24T02:49:43.393Z,19.62
2022-08-24T02:52:45.384Z,19.59
2022-08-24T02:55:48.810Z,19.57
2022-08-24T02:58:50.667Z,19.53
2022-08-24T03:01:55.913Z,19.49
2022-08-24T03:05:00.036Z,19.40
2022-08-24T03:08:01.632Z,19.34
2022-08-24T03:11:08.767Z,19.28
2022-08-24T03:14:10.419Z,19.23
2022-08-24T03:17:12.414Z,19.22
2022-08-24T03:20:15.493Z,19.20
2022-08-24T03:23:17.369Z,19.15
2022-08-24T03:26:23.325Z,19.08
2022-08-24T03:29:24.972Z,19.02
2022-08-24T03:32:26.711Z,19.00
2022-08-24T03:35:28.713Z,19.01
2022-08-24T03:38:31.090Z,19.03
2022-08-24T03:41:36.598Z,19.06
2022-08-24T03:44:38.947Z,19.00
2022-08-24T03:47:40.743Z,18.99
2022-08-24T03:50:47.690Z,19.01
2022-08-24T03:53:49.869Z,19.02
2022-08-24T03:56:53.181Z,18.99
2022-08-24T03:59:56.395Z,18.98
2022-08-24T04:02:58.677Z,18.98
2022-08-24T04:06:01.442Z,18.95
2022-08-24T04:09:03.781Z,18.94
2022-08-24T04:12:08.791Z,18.93
2022-08-24T04:15:11.519Z,18.94
2022-08-24T04:18:14.000Z,18.93
2022-08-24T04:21:17.020Z,18.90
2022-08-24T04:24:19.882Z,18.88
2022-08-24T04:27:23.404Z,18.89
2022-08-24T04:30:25.564Z,18.86
2022-08-24T04:33:30.369Z,18.81
2022-08-24T04:36:32.847Z,18.78
2022-08-24T04:39:38.938Z,18.76
2022-08-24T04:42:43.715Z,18.75
2022-08-24T04:45:47.031Z,18.71
2022-08-24T04:48:50.129Z,18.70
2022-08-24T04:51:52.225Z,18.67
2022-08-24T04:54:54.377Z,18.66
2022-08-24T04:57:58.295Z,18.66
2022-08-24T05:01:00.779Z,18.65
2022-08-24T05:04:06.518Z,18.64
2022-08-24T05:07:08.885Z,18.61
2022-08-24T05:10:11.378Z,18.65
2022-08-24T05:13:14.427Z,18.74
2022-08-24T05:16:23.040Z,18.76
2022-08-24T05:19:24.638Z,18.80
2022-08-24T05:22:26.243Z,18.85
2022-08-24T05:25:28.206Z,18.91
2022-08-24T05:28:31.155Z,18.95
2022-08-24T05:31:33.366Z,18.97
2022-08-24T05:34:36.728Z,19.02
2022-08-24T05:37:39.025Z,19.07
2022-08-24T05:40:41.392Z,19.12
2022-08-24T05:43:44.669Z,19.15
2022-08-24T05:46:47.427Z,19.19
2022-08-24T05:49:53.181Z,19.22
2022-08-24T05:52:56.745Z,19.27
2022-08-24T05:55:59.611Z,19.30
2022-08-24T05:59:02.850Z,19.36
2022-08-24T06:02:10.225Z,19.39
2022-08-24T06:05:15.339Z,19.43
2022-08-24T06:08:17.320Z,19.49
2022-08-24T06:11:30.161Z,19.54
2022-08-24T06:14:34.979Z,19.63
2022-08-24T06:17:38.913Z,19.71
2022-08-24T06:20:43.053Z,19.77
2022-08-24T06:23:50.100Z,19.82
2022-08-24T06:27:11.649Z,19.89
2022-08-24T06:30:17.617Z,20.01
2022-08-24T06:33:20.053Z,20.11
2022-08-24T06:36:22.724Z,20.18
2022-08-24T06:39:25.689Z,20.23
2022-08-24T06:42:29.486Z,20.27
2022-08-24T06:45:32.974Z,20.36
2022-08-24T06:48:35.211Z,20.39
2022-08-24T06:51:41.796Z,20.48
2022-08-24T06:54:43.670Z,20.55
2022-08-24T06:57:50.399Z,20.61
2022-08-24T07:01:08.754Z,20.66
2022-08-24T07:04:10.628Z,20.76
2022-08-24T07:07:13.335Z,20.87
2022-08-24T07:10:15.222Z,20.98
2022-08-24T07:13:17.589Z,21.06
2022-08-24T07:16:27.887Z,21.12
2022-08-24T07:19:30.670Z,21.20
2022-08-24T07:22:33.183Z,21.23
2022-08-24T07:25:35.573Z,21.29
2022-08-24T07:28:37.940Z,21.37
2022-08-24T07:31:42.435Z,21.40
2022-08-24T07:34:48.066Z,21.45
2022-08-24T07:37:52.843Z,21.53
2022-08-24T07:41:20.326Z,21.72
2022-08-24T07:44:18.924Z,21.81
2022-08-24T07:47:43.085Z,21.85
2022-08-24T07:50:45.241Z,21.99
2022-08-24T07:53:54.648Z,22.12
2022-08-24T07:56:56.747Z,22.20
2022-08-24T07:59:59.324Z,22.18
2022-08-24T08:03:05.482Z,22.21
2022-08-24T08:06:12.573Z,22.24
2022-08-24T08:09:18.551Z,22.46
2022-08-24T08:12:20.787Z,22.57
2022-08-24T08:15:22.970Z,22.69
2022-08-24T08:18:34.952Z,22.81
2022-08-24T08:22:01.301Z,22.90
2022-08-24T08:25:04.010Z,23.04
2022-08-24T08:28:24.981Z,23.13
2022-08-24T08:31:28.305Z,23.17
2022-08-24T08:34:32.393Z,23.20
2022-08-24T08:40:48.546Z,23.34
2022-08-24T08:43:55.839Z,23.40
2022-08-24T08:47:06.013Z,23.60
2022-08-24T08:50:14.312Z,23.71
2022-08-24T08:53:25.699Z,23.77
2022-08-24T08:56:34.043Z,23.86
2022-08-24T08:59:53.911Z,23.95
2022-08-24T09:03:10.121Z,24.00
2022-08-24T09:06:29.922Z,24.01
2022-08-24T09:09:55.180Z,24.09
2022-08-24T09:13:06.386Z,24.22
2022-08-24T09:16:26.425Z,24.31
2022-08-24T09:19:41.325Z,24.34
2022-08-24T09:22:49.879Z,24.61
2022-08-24T09:26:02.702Z,24.70
2022-08-24T09:29:13.478Z,24.76
2022-08-24T09:32:27.955Z,24.84
2022-08-24T09:35:35.224Z,25.03
2022-08-24T09:38:47.720Z,25.03
2022-08-24T09:42:08.967Z,25.00
2022-08-24T09:45:22.698Z,25.12
2022-08-24T09:48:39.624Z,25.23
2022-08-24T09:52:07.709Z,25.19
2022-08-24T09:55:21.391Z,25.33
2022-08-24T09:58:32.880Z,25.41
2022-08-24T10:01:40.163Z,25.49
2022-08-24T10:04:48.724Z,25.55
2022-08-24T10:07:55.519Z,25.62
2022-08-24T10:11:04.675Z,25.64
2022-08-24T10:14:13.708Z,25.99
2022-08-24T10:17:20.826Z,26.09
2022-08-24T10:20:24.840Z,26.13
2022-08-24T10:23:32.919Z,26.11
2022-08-24T10:26:40.498Z,26.14
2022-08-24T10:30:00.985Z,26.18
2022-08-24T10:33:09.113Z,26.10
2022-08-24T10:36:29.094Z,26.39
2022-08-24T10:39:49.448Z,26.29
2022-08-24T10:43:31.795Z,26.46
2022-08-24T10:46:39.907Z,26.76
2022-08-24T10:49:57.678Z,26.91
2022-08-24T10:53:20.690Z,27.04
2022-08-24T10:56:29.903Z,27.15
2022-08-24T10:59:35.359Z,27.16
2022-08-24T11:02:42.030Z,27.24
2022-08-24T11:05:45.945Z,27.29
2022-08-24T11:08:53.677Z,27.42
2022-08-24T11:12:17.183Z,27.17
2022-08-24T11:15:20.747Z,27.00
2022-08-24T11:18:24.395Z,27.30
2022-08-24T11:21:37.956Z,27.55
2022-08-24T11:24:41.798Z,27.63
2022-08-24T11:27:51.476Z,27.78
2022-08-24T11:30:53.617Z,27.65
2022-08-24T11:34:03.733Z,27.79
2022-08-24T11:37:11.195Z,27.98
2022-08-24T11:40:14.043Z,28.03
2022-08-24T11:43:22.337Z,27.84
2022-08-24T11:46:30.202Z,28.07
2022-08-24T11:49:43.858Z,28.00
2022-08-24T11:52:53.011Z,27.86
2022-08-24T11:56:00.309Z,27.77
2022-08-24T11:59:06.249Z,28.02
2022-08-24T12:02:11.624Z,28.25
2022-08-24T12:05:22.800Z,28.26
2022-08-24T12:08:31.267Z,28.18
2022-08-24T12:11:38.304Z,28.33
2022-08-24T12:14:42.756Z,28.45
2022-08-24T12:17:47.072Z,28.44
2022-08-24T12:20:50.846Z,28.31
2022-08-24T12:23:59.153Z,28.27
2022-08-24T12:27:04.009Z,28.38
2022-08-24T12:30:09.851Z,28.36
2022-08-24T12:33:13.649Z,28.33
2022-08-24T12:36:21.674Z,28.38
2022-08-24T12:39:27.163Z,28.63
2022-08-24T12:42:34.652Z,28.70
2022-08-24T12:45:39.485Z,28.73
2022-08-24T12:48:44.460Z,28.69
2022-08-24T12:52:02.714Z,28.73
2022-08-24T12:55:20.066Z,28.73
2022-08-24T12:58:35.048Z,28.93
2022-08-24T13:01:40.774Z,29.02
2022-08-24T13:04:44.699Z,29.08
2022-08-24T13:07:49.886Z,29.16
2022-08-24T13:10:54.627Z,29.40
2022-08-24T13:14:06.151Z,29.43
2022-08-24T13:17:11.051Z,29.32
2022-08-24T13:20:18.757Z,29.28
2022-08-24T13:23:22.854Z,29.18
2022-08-24T13:26:27.847Z,29.10
2022-08-24T13:29:33.755Z,29.09
2022-08-24T13:32:37.289Z,29.19
2022-08-24T13:35:54.698Z,29.45
2022-08-24T13:39:04.710Z,29.52
2022-08-24T13:42:11.691Z,29.42
2022-08-24T13:45:30.954Z,29.52
2022-08-24T13:48:50.563Z,29.63
2022-08-24T13:51:54.494Z,29.69
2022-08-24T13:55:06.006Z,29.68
2022-08-24T13:58:23.238Z,29.69
2022-08-24T14:01:33.942Z,29.76
2022-08-24T14:04:42.525Z,29.71
2022-08-24T14:07:50.530Z,29.59
2022-08-24T14:10:59.772Z,29.51
2022-08-24T14:14:04.429Z,29.54
2022-08-24T14:17:35.456Z,29.57
2022-08-24T14:20:49.088Z,29.52
2022-08-24T14:23:59.938Z,29.58
2022-08-24T14:27:08.951Z,29.42
2022-08-24T14:30:31.092Z,29.13
2022-08-24T14:33:34.743Z,28.76
2022-08-24T14:36:43.273Z,28.48
2022-08-24T14:39:53.030Z,28.25
2022-08-24T14:42:57.551Z,28.13
2022-08-24T14:46:05.930Z,28.02
2022-08-24T14:49:15.153Z,27.92
2022-08-24T14:52:38.124Z,27.79
2022-08-24T14:55:43.460Z,27.68
2022-08-24T14:58:51.969Z,27.59
2022-08-24T15:01:59.975Z,27.60
2022-08-24T15:05:08.177Z,27.53
2022-08-24T15:08:12.464Z,27.50
2022-08-24T15:11:21.571Z,27.58
2022-08-24T15:14:40.353Z,27.65
2022-08-24T15:17:51.075Z,27.94
2022-08-24T15:21:11.532Z,28.25
2022-08-24T15:24:16.960Z,28.35
2022-08-24T15:27:24.170Z,28.40
2022-08-24T15:30:29.094Z,28.48
2022-08-24T15:33:31.271Z,28.61
2022-08-24T15:36:34.234Z,28.63
2022-08-24T15:39:38.417Z,28.69
2022-08-24T15:42:40.299Z,28.71
2022-08-24T15:45:47.074Z,28.64
2022-08-24T15:48:50.667Z,28.59
2022-08-24T15:51:54.704Z,28.61
2022-08-24T15:54:58.083Z,28.64
2022-08-24T15:58:15.450Z,28.53
2022-08-24T16:01:41.821Z,28.47
2022-08-24T16:04:46.529Z,28.38
2022-08-24T16:07:58.916Z,28.25
2022-08-24T16:11:07.253Z,28.14
2022-08-24T16:14:13.157Z,28.14
2022-08-24T16:17:25.338Z,28.20
2022-08-24T16:20:32.080Z,28.08
2022-08-24T16:23:33.651Z,28.06
2022-08-24T16:26:51.669Z,28.07
2022-08-24T16:29:55.868Z,28.04
2022-08-24T16:33:00.465Z,27.95
2022-08-24T16:36:05.429Z,27.88
2022-08-24T16:39:07.147Z,27.85
2022-08-24T16:42:11.067Z,27.80
2022-08-24T16:45:15.588Z,27.74
2022-08-24T16:48:18.857Z,27.62
2022-08-24T16:51:24.899Z,27.51
2022-08-24T16:54:26.543Z,27.37
2022-08-24T16:57:29.757Z,27.28
2022-08-24T17:00:31.421Z,27.18
2022-08-24T17:03:34.420Z,27.12
2022-08-24T17:06:36.466Z,27.14
2022-08-24T17:09:39.182Z,27.13
2022-08-24T17:12:41.142Z,27.11
2022-08-24T17:15:50.745Z,27.08
2022-08-24T17:18:57.539Z,27.06
2022-08-24T17:21:59.306Z,27.01
2022-08-24T17:25:01.196Z,26.96
2022-08-24T17:28:03.183Z,26.90
2022-08-24T17:31:06.475Z,26.81
2022-08-24T17:34:09.930Z,26.77
2022-08-24T17:37:12.254Z,26.71
2022-08-24T17:40:15.458Z,26.63
2022-08-24T17:43:17.369Z,26.56
2022-08-24T17:46:19.197Z,26.49
2022-08-24T17:49:22.312Z,26.41
2022-08-24T17:52:28.314Z,26.32
2022-08-24T17:55:30.138Z,26.28
2022-08-24T17:58:32.341Z,26.21
2022-08-24T18:01:34.425Z,26.12
2022-08-24T18:04:44.023Z,26.02
2022-08-24T18:07:53.431Z,25.92
2022-08-24T18:10:55.865Z,25.82
2022-08-24T18:13:57.624Z,25.73
2022-08-24T18:17:01.355Z,25.62
2022-08-24T18:20:05.136Z,25.54
2022-08-24T18:23:11.411Z,25.46
2022-08-24T18:26:15.417Z,25.39
2022-08-24T18:29:21.341Z,25.32
2022-08-24T18:32:23.077Z,25.28
2022-08-24T18:35:33.540Z,25.23
2022-08-24T18:38:35.358Z,25.13
2022-08-24T18:41:39.795Z,25.06
2022-08-24T18:44:42.115Z,24.97
2022-08-24T18:47:44.218Z,24.85
2022-08-24T18:50:50.702Z,24.76
2022-08-24T18:53:55.901Z,24.71
2022-08-24T18:56:57.630Z,24.65
2022-08-24T18:59:59.655Z,24.57
2022-08-24T19:03:02.703Z,24.51
2022-08-24T19:06:07.909Z,24.53
2022-08-24T19:09:09.508Z,24.54
2022-08-24T19:12:11.436Z,24.51
2022-08-24T19:15:29.105Z,24.45
2022-08-24T19:18:52.193Z,24.39
2022-08-24T19:21:56.451Z,24.33
2022-08-24T19:24:59.116Z,24.28
2022-08-24T19:28:01.745Z,24.25
2022-08-24T19:31:05.623Z,24.18
2022-08-24T19:34:07.551Z,24.14
2022-08-24T19:37:10.762Z,24.14
2022-08-24T19:40:12.876Z,24.12
2022-08-24T19:43:15.044Z,24.09
2022-08-24T19:46:19.205Z,24.09
2022-08-24T19:49:21.545Z,24.09
2022-08-24T19:52:26.921Z,24.10
2022-08-24T19:55:28.848Z,24.06
2022-08-24T19:58:36.306Z,24.03
2022-08-24T20:01:38.916Z,23.95
2022-08-24T20:04:40.558Z,23.93
2022-08-24T20:07:44.886Z,23.90
2022-08-24T20:10:49.937Z,23.87
2022-08-24T20:13:52.198Z,23.88
2022-08-24T20:16:54.054Z,23.89
2022-08-24T20:19:57.195Z,23.87
2022-08-24T20:23:03.379Z,23.85
2022-08-24T20:26:06.667Z,23.85
2022-08-24T20:29:08.463Z,23.82
2022-08-24T20:32:10.171Z,23.80
2022-08-24T20:35:15.233Z,23.75
2022-08-24T20:38:22.968Z,23.66
2022-08-24T20:41:24.941Z,23.58
2022-08-24T20:44:26.908Z,23.52
2022-08-24T20:47:28.558Z,23.47
2022-08-24T20:50:31.137Z,23.36
2022-08-24T20:53:34.424Z,23.31
2022-08-24T20:56:37.980Z,23.27
2022-08-24T20:59:39.660Z,23.22
2022-08-24T21:02:41.435Z,23.18
2022-08-24T21:05:43.772Z,23.16
2022-08-24T21:08:47.638Z,23.13
2022-08-24T21:11:49.513Z,23.18
2022-08-24T21:14:51.352Z,23.16
2022-08-24T21:17:53.143Z,23.14
2022-08-24T21:21:04.108Z,23.06
2022-08-24T21:24:08.459Z,22.99
2022-08-24T21:27:10.327Z,22.92
2022-08-24T21:30:16.164Z,22.82
2022-08-24T21:33:36.713Z,22.73
2022-08-24T21:36:38.864Z,22.73
2022-08-24T21:39:42.366Z,22.72
2022-08-24T21:42:44.190Z,22.67
2022-08-24T21:45:46.567Z,22.61
2022-08-24T21:48:48.476Z,22.53
2022-08-24T21:51:50.466Z,22.49
2022-08-24T21:54:55.162Z,22.41
2022-08-24T21:57:58.426Z,22.38
2022-08-24T22:01:01.265Z,22.35
2022-08-24T22:04:03.611Z,22.36
2022-08-24T22:07:05.111Z,22.48
2022-08-24T22:10:08.703Z,22.46
2022-08-24T22:13:11.280Z,22.48
2022-08-24T22:16:13.627Z,22.45
2022-08-24T22:19:15.643Z,22.42
2022-08-24T22:22:17.666Z,22.43
2022-08-24T22:25:20.810Z,22.43
2022-08-24T22:28:24.339Z,22.45
2022-08-24T22:31:27.225Z,22.41
2022-08-24T22:34:29.012Z,22.38
2022-08-24T22:37:30.881Z,22.34
2022-08-24T22:40:33.937Z,22.35
2022-08-24T22:43:54.954Z,22.27
2022-08-24T22:46:58.139Z,22.18
2022-08-24T22:50:00.690Z,22.11
2022-08-24T22:53:03.162Z,22.10
2022-08-24T22:56:13.767Z,22.07
2022-08-24T22:59:16.886Z,22.06
2022-08-24T23:02:19.868Z,22.05
2022-08-24T23:05:22.003Z,22.03
2022-08-24T23:08:23.749Z,22.00
2022-08-24T23:11:27.260Z,21.99
2022-08-24T23:14:29.098Z,21.91
2022-08-24T23:17:31.933Z,21.89
2022-08-24T23:20:33.521Z,21.85
2022-08-24T23:23:35.561Z,21.81
2022-08-24T23:26:38.966Z,21.70
2022-08-24T23:29:50.413Z,21.59
2022-08-24T23:32:52.839Z,21.49
2022-08-24T23:35:55.687Z,21.42
2022-08-24T23:39:08.856Z,21.31
2022-08-24T23:42:13.430Z,21.22
2022-08-24T23:45:15.476Z,21.12
2022-08-24T23:48:17.873Z,21.06
2022-08-24T23:51:21.991Z,21.02
2022-08-24T23:54:25.200Z,20.99
2022-08-24T23:57:32.102Z,20.94
